Main page
METAR-TAF:

METAR-TAF

Airports :

Kelowna International Airport

Kelowna, British Columbia, Canada

latitude: 49-58N, longitude: 119-23W, elevation: 430 m

Current weather observation

The report was made 56 minutes ago, at 03:00 UTC
Wind 21 kt from the Southwest with gusts up to 27 kt
Temperature 19°C
Humidity 32%
Pressure 1012 hPa
Visibility: 14.5 km
Clear sky

METAR: CYLW 240300Z AUTO 23021G27KT 9SM CLR 19/02 A2987 RMK SLP114 DENSITY ALT 2300FT

Time: 20:56 (03:56 UTC)

Forecast

The report was made 3 hours and 16 minutes ago, at 00:40 UTC
Forecast valid from 24 at 01 UTC to 24 at 13 UTC
Wind 20 kt from the Southwest with gusts up to 30 kt
Visibility: 10 km
Scattered clouds at a height of 12000 ft
Becoming
from 24 at 02 UTC to 24 at 04 UTC
Wind 10 kt from the Southwest with gusts up to 20 kt
Becoming
from 24 at 05 UTC to 24 at 07 UTC
Wind 8 kt from the South

TAF: CYLW 240040Z 2401/2413 22020G30KT P6SM SCT120 BECMG 2402/2404 22010G20KT BECMG 2405/2407 18008KT RMK FCST BASED ON AUTO OBS. NXT FCST BY 240700Z

Weather observations and forecasts of more than 4000 airports (METAR and TAF reports).

The available stations are represented by yellow and red dots on the map.

Hover mouse over dot to see the name of the station.

Then click to see weather observations and forecasts.

To change the map : click on the green buttons with a black cross to zoom in, on the green button with a dash to zoom out, or on the green arrows for adjacent maps.


METAR-TAF: